Wroclaw, Poland

10:10 AM CEST on August 20, 2014 (GMT +0200)
Wroclaw - Zerniki | Change Station
CLOSE
Current Station
Personal Weather Station
Location: Wroclaw, DOLNOSLASKIE
Elevation: 390 ft
Nearby Weather Stations

Elev 390 ft 51.12 °N, 16.92 °E | Updated 1 minute ago

Partly Cloudy
Partly Cloudy
62.4 °F
Feels Like 62.4 °F
N
0.0
Wind Variable Wind from North
Gusts 0.0 mph

Today
High -- | Low -- °F
--% Chance of Precip.
Yesterday
High -- | Low -- °F
Precip. -- in
5:45 AM 8:03 PM
Waning Crescent, 23% visible
Pressure 30.01 in
Visibility 6.2 miles
Clouds Few 4300 ft
Dew Point 50 °F
Humidity 65%
Rainfall 0.00 in
Snow Depth Not available.
UV 4 out of 12
Pollen Not available.
Air Quality Not available.
Flu Activity Not available.
METAR EPWR 200800Z 26012KT 230V290 9999 FEW043 17/07 Q1016

More Conditions Fewer Conditions

Pressure 30.01 in
Visibility 6.2 miles
Clouds Few 4300 ft
Dew Point 50 °F
Humidity 65%
Rainfall 0.00 in
Snow Depth Not available.
UV 4 out of 12
Pollen Not available.
Air Quality Not available.
Flu Activity Not available.
METAR EPWR 200800Z 26012KT 230V290 9999 FEW043 17/07 Q1016

More Conditions Fewer Conditions

10-Day Weather Forecast

Almanac

Astronomy

Aug. 20, 2014 Rise Set
Actual Time 5:45 AM CEST 8:03 PM CEST
Civil Twilight 5:09 AM CEST 8:39 PM CEST
Nautical Twilight 4:23 AM CEST 9:25 PM CEST
Astronomical Twilight 3:30 AM CEST 10:17 PM CEST
Moon 12:59 AM CEST 4:46 PM CEST
Length of Visible Light 15h 30m
Length of Day
14h 17m
Tomorrow will be 3m 37s shorter.
Waning Crescent, 23% of the Moon is Illuminated
Today
Waning Crescent
Aug 25
New
Sep 2
First Quarter
Sep 8
Full
Sep 15
Last Quarter

Yesterday's Extremes

Country Highs Country Lows

Community

WunderPhotos

Upload Photos

1,745,601 photos uploaded!

Nearby

Snow Depth

Not available.

Earthquake Activity

City Distance Mag. Time & Date
No recent earthquake activity has been reported nearby.
Minimum magnitude displayed is 2.5.

Coastal Water Temperatures

Place Temperature
No Stations Reporting

Nearby Weather Stations